Time;durP1;ratioP1;P1;durP2;ratioP2;P2;SDS_P1;SDS_P2;PMS_P1;PMS_P2;Temp;Humidity;BMP_temperature;BMP_pressure;BME280_temperature;BME280_humidity;BME280_pressure;Samples;Min_cycle;Max_cycle;Signal;HPM_P1;HPM_P2
2022/10/10 00:02:25;;;;;;;5.97;3.08;;;;;;;;;;7385900;19;20747;-68
2022/10/10 00:04:52;;;;;;;6.93;3.28;;;;;;;;;;7387967;19;20007;-67
2022/10/10 00:07:18;;;;;;;5.75;2.90;;;;;;;;;;7385833;19;20009;-68
2022/10/10 00:09:45;;;;;;;6.00;3.03;;;;;;;;;;7387093;19;20013;-67
2022/10/10 00:12:10;;;;;;;12.88;3.75;;;;;;;;;;7385803;19;20007;-68
2022/10/10 00:14:35;;;;;;;6.05;2.88;;;;;;;;;;7385642;19;19999;-67
2022/10/10 00:17:01;;;;;;;9.30;3.47;;;;;;;;;;7389896;19;19994;-69
2022/10/10 00:19:26;;;;;;;7.00;3.13;;;;;;;;;;7395000;19;20587;-68
2022/10/10 00:21:51;;;;;;;5.88;3.03;;;;;;;;;;7391267;19;20014;-67
2022/10/10 00:24:17;;;;;;;7.97;3.30;;;;;;;;;;7393555;19;20003;-68
2022/10/10 00:26:42;;;;;;;5.20;2.90;;;;;;;;;;7394721;19;20002;-68
2022/10/10 00:29:07;;;;;;;7.65;3.10;;;;;;;;;;7394576;19;20120;-68
2022/10/10 00:31:33;;;;;;;6.07;2.85;;;;;;;;;;7391265;19;20003;-68
2022/10/10 00:33:58;;;;;;;7.97;3.13;;;;;;;;;;7393498;19;20033;-67
2022/10/10 00:36:23;;;;;;;6.30;2.85;;;;;;;;;;7394392;19;19995;-68
2022/10/10 00:38:49;;;;;;;6.82;3.03;;;;;;;;;;7394410;19;20009;-69
2022/10/10 00:41:14;;;;;;;8.40;3.10;;;;;;;;;;7391077;19;20002;-68
2022/10/10 00:43:40;;;;;;;6.80;3.42;;;;;;;;;;7394305;19;20041;-69
2022/10/10 00:46:05;;;;;;;8.10;3.35;;;;;;;;;;7394276;19;19999;-69
2022/10/10 00:48:35;;;;;;;7.25;3.10;;;;;;;;;;7393005;19;20023;-68
2022/10/10 00:51:13;;;;;;;5.83;3.07;;;;;;;;;;7387188;19;20007;-69
2022/10/10 00:53:43;;;;;;;7.18;3.35;;;;;;;;;;7389283;19;20878;-68
2022/10/10 00:56:10;;;;;;;8.27;3.00;;;;;;;;;;7389733;19;20007;-69
2022/10/10 00:58:38;;;;;;;7.35;3.05;;;;;;;;;;7387420;19;20039;-68
2022/10/10 01:01:04;;;;;;;6.13;3.28;;;;;;;;;;7386962;19;20002;-68
2022/10/10 01:03:29;;;;;;;6.47;2.90;;;;;;;;;;7388672;19;20467;-69
2022/10/10 01:05:54;;;;;;;8.05;3.00;;;;;;;;;;7391482;19;20544;-68
2022/10/10 01:08:20;;;;;;;5.57;2.95;;;;;;;;;;7393222;19;20023;-69
2022/10/10 01:11:20;;;;;;;5.13;2.78;;;;;;;;;;7391753;19;20517;-68
2022/10/10 01:14:18;;;;;;;5.10;2.80;;;;;;;;;;7392529;19;20003;-67
2022/10/10 01:17:18;;;;;;;5.63;2.78;;;;;;;;;;7392705;19;20019;-68
2022/10/10 01:19:43;;;;;;;6.60;2.70;;;;;;;;;;7390888;19;20002;-68
2022/10/10 01:22:24;;;;;;;5.33;2.80;;;;;;;;;;7390918;19;19995;-69
2022/10/10 01:24:50;;;;;;;5.38;2.92;;;;;;;;;;7395903;19;20780;-68
2022/10/10 01:27:24;;;;;;;7.40;3.00;;;;;;;;;;7391557;19;20098;-69
2022/10/10 01:29:52;;;;;;;6.45;3.30;;;;;;;;;;7390731;19;20015;-69
2022/10/10 01:32:38;;;;;;;7.50;3.00;;;;;;;;;;7390609;19;20006;-70
2022/10/10 01:35:22;;;;;;;7.28;2.95;;;;;;;;;;7390473;19;20079;-68
2022/10/10 01:38:10;;;;;;;8.00;3.22;;;;;;;;;;7392041;19;20003;-68
2022/10/10 01:41:12;;;;;;;6.13;3.00;;;;;;;;;;7388970;19;20003;-68
2022/10/10 01:43:38;;;;;;;6.60;3.20;;;;;;;;;;7389927;19;20035;-68
2022/10/10 01:46:17;;;;;;;10.73;3.42;;;;;;;;;;7392111;19;20003;-68
2022/10/10 01:48:46;;;;;;;6.40;3.10;;;;;;;;;;7391284;19;20007;-68
2022/10/10 01:51:29;;;;;;;7.35;3.30;;;;;;;;;;7388451;19;20030;-69
2022/10/10 01:54:28;;;;;;;8.05;3.20;;;;;;;;;;7390690;19;20002;-69
2022/10/10 01:57:12;;;;;;;9.07;3.58;;;;;;;;;;7391558;19;19998;-68
2022/10/10 02:00:24;;;;;;;6.53;3.50;;;;;;;;;;7389622;19;20082;-69
2022/10/10 02:03:08;;;;;;;6.30;3.28;;;;;;;;;;7385830;19;20006;-69
2022/10/10 02:05:52;;;;;;;5.10;3.13;;;;;;;;;;7387221;19;20006;-69
2022/10/10 02:08:30;;;;;;;5.65;3.40;;;;;;;;;;7389933;19;20006;-68
2022/10/10 02:11:00;;;;;;;8.10;3.30;;;;;;;;;;7389431;19;20539;-67
2022/10/10 02:13:35;;;;;;;7.07;3.45;;;;;;;;;;7390210;19;20058;-68
2022/10/10 02:16:03;;;;;;;7.15;3.20;;;;;;;;;;7391160;19;20021;-67
2022/10/10 02:18:32;;;;;;;5.30;3.08;;;;;;;;;;7391088;19;20006;-67
2022/10/10 02:21:00;;;;;;;6.45;3.28;;;;;;;;;;7389185;19;20019;-69
2022/10/10 02:23:26;;;;;;;5.47;3.05;;;;;;;;;;7388446;19;19998;-68
2022/10/10 02:25:54;;;;;;;6.75;3.13;;;;;;;;;;7389400;19;20006;-67
2022/10/10 02:28:28;;;;;;;5.97;3.40;;;;;;;;;;7390553;19;20030;-67
2022/10/10 02:30:58;;;;;;;6.38;3.70;;;;;;;;;;7388313;19;20494;-68
2022/10/10 02:33:31;;;;;;;7.35;3.60;;;;;;;;;;7390249;19;20408;-68
2022/10/10 02:35:58;;;;;;;6.07;3.40;;;;;;;;;;7391108;19;20023;-68
2022/10/10 02:38:24;;;;;;;6.72;3.17;;;;;;;;;;7389438;19;20010;-69
2022/10/10 02:40:51;;;;;;;6.70;3.75;;;;;;;;;;7388707;19;20009;-69
2022/10/10 02:43:18;;;;;;;8.18;3.65;;;;;;;;;;7389654;19;20003;-69
2022/10/10 02:45:43;;;;;;;6.78;3.20;;;;;;;;;;7390481;19;20003;-69
2022/10/10 02:48:08;;;;;;;5.93;3.70;;;;;;;;;;7390181;19;19999;-69
2022/10/10 02:50:34;;;;;;;6.70;3.53;;;;;;;;;;7389196;19;20501;-69
2022/10/10 02:52:59;;;;;;;7.70;3.55;;;;;;;;;;7392295;19;20003;-69
2022/10/10 02:55:25;;;;;;;7.40;3.50;;;;;;;;;;7388489;19;20366;-68
2022/10/10 02:57:51;;;;;;;6.93;3.15;;;;;;;;;;7390153;19;20027;-67
2022/10/10 03:00:16;;;;;;;7.43;3.55;;;;;;;;;;7389306;19;20002;-67
2022/10/10 03:02:42;;;;;;;7.30;3.55;;;;;;;;;;7388177;19;20014;-68
2022/10/10 03:05:08;;;;;;;11.07;3.72;;;;;;;;;;7390143;19;19998;-67
2022/10/10 03:07:34;;;;;;;11.25;3.90;;;;;;;;;;7393554;19;20245;-68
2022/10/10 03:09:59;;;;;;;6.32;3.40;;;;;;;;;;7392063;19;20009;-68
2022/10/10 03:12:24;;;;;;;9.68;3.22;;;;;;;;;;7386553;19;19999;-68
2022/10/10 03:14:49;;;;;;;5.35;3.08;;;;;;;;;;7387906;19;20532;-68
2022/10/10 03:17:15;;;;;;;8.02;3.40;;;;;;;;;;7388754;19;20003;-68
2022/10/10 03:19:40;;;;;;;7.15;3.42;;;;;;;;;;7386708;19;20006;-68
2022/10/10 03:22:06;;;;;;;6.80;3.63;;;;;;;;;;7387257;19;19999;-68
2022/10/10 03:24:31;;;;;;;9.48;3.38;;;;;;;;;;7388789;19;20475;-68
2022/10/10 03:26:57;;;;;;;5.82;3.42;;;;;;;;;;7388428;19;20359;-68
2022/10/10 03:29:22;;;;;;;10.20;4.00;;;;;;;;;;7388276;19;19998;-68
2022/10/10 03:31:47;;;;;;;5.68;3.25;;;;;;;;;;7388699;19;20145;-68
2022/10/10 03:34:13;;;;;;;8.30;3.20;;;;;;;;;;7385646;19;20031;-68
2022/10/10 03:36:38;;;;;;;7.75;3.60;;;;;;;;;;7386082;19;20021;-68
2022/10/10 03:39:04;;;;;;;6.50;3.38;;;;;;;;;;7388232;19;20052;-68
2022/10/10 03:41:29;;;;;;;5.85;3.40;;;;;;;;;;7385181;19;20027;-68
2022/10/10 03:43:55;;;;;;;5.97;3.33;;;;;;;;;;7386433;19;20023;-69
2022/10/10 03:46:20;;;;;;;7.40;3.90;;;;;;;;;;7388068;19;20082;-69
2022/10/10 03:48:46;;;;;;;7.25;3.55;;;;;;;;;;7387766;19;20373;-69
2022/10/10 03:51:11;;;;;;;9.52;3.63;;;;;;;;;;7389184;19;20100;-68
2022/10/10 03:53:37;;;;;;;7.57;3.92;;;;;;;;;;7394945;19;20708;-69
2022/10/10 03:56:02;;;;;;;9.10;3.67;;;;;;;;;;7395169;19;20003;-68
2022/10/10 03:58:28;;;;;;;7.32;3.60;;;;;;;;;;7395451;19;20006;-68
2022/10/10 04:00:58;;;;;;;7.30;3.70;;;;;;;;;;7392517;19;20779;-69
2022/10/10 04:03:24;;;;;;;9.27;3.55;;;;;;;;;;7394628;19;20484;-68
2022/10/10 04:05:50;;;;;;;9.55;3.67;;;;;;;;;;7396194;19;20003;-69
2022/10/10 04:08:16;;;;;;;9.18;4.07;;;;;;;;;;7395131;19;20002;-69
2022/10/10 04:10:47;;;;;;;6.15;3.40;;;;;;;;;;7329705;19;20002;-68
2022/10/10 04:13:12;;;;;;;6.30;3.75;;;;;;;;;;7395379;19;20002;-69
2022/10/10 04:15:38;;;;;;;7.22;3.95;;;;;;;;;;7396084;19;20010;-68
2022/10/10 04:18:03;;;;;;;9.70;4.03;;;;;;;;;;7398193;19;20074;-68
2022/10/10 04:20:29;;;;;;;7.43;3.85;;;;;;;;;;7397573;19;20002;-68
2022/10/10 04:22:54;;;;;;;11.38;4.00;;;;;;;;;;7396033;19;20007;-67
2022/10/10 04:25:19;;;;;;;10.95;4.13;;;;;;;;;;7395318;19;20329;-67
2022/10/10 04:27:45;;;;;;;9.32;4.20;;;;;;;;;;7398464;19;20489;-68
2022/10/10 04:30:11;;;;;;;7.72;4.32;;;;;;;;;;7397913;19;20639;-67
2022/10/10 04:32:36;;;;;;;6.75;4.03;;;;;;;;;;7397083;19;20455;-69
2022/10/10 04:35:02;;;;;;;8.77;4.38;;;;;;;;;;7392698;19;20479;-68
2022/10/10 04:37:28;;;;;;;15.23;4.65;;;;;;;;;;7393972;19;20318;-69
2022/10/10 04:39:53;;;;;;;7.07;3.88;;;;;;;;;;7392218;19;19999;-70
2022/10/10 04:42:18;;;;;;;10.02;4.80;;;;;;;;;;7393055;19;20002;-69
2022/10/10 04:44:44;;;;;;;9.40;4.95;;;;;;;;;;7392917;19;19998;-68
2022/10/10 04:47:09;;;;;;;8.75;4.05;;;;;;;;;;7390699;19;19998;-68
2022/10/10 04:49:34;;;;;;;9.75;4.57;;;;;;;;;;7390020;19;19999;-68
2022/10/10 04:52:00;;;;;;;10.38;4.20;;;;;;;;;;7335391;19;20343;-68
2022/10/10 04:54:25;;;;;;;6.75;4.07;;;;;;;;;;7395010;19;20007;-68
2022/10/10 04:56:50;;;;;;;9.68;4.07;;;;;;;;;;7397122;19;20074;-68
2022/10/10 04:59:16;;;;;;;15.70;4.57;;;;;;;;;;7393922;19;20429;-68
2022/10/10 05:01:41;;;;;;;11.40;4.88;;;;;;;;;;7389349;19;20475;-69
2022/10/10 05:04:06;;;;;;;9.43;4.00;;;;;;;;;;7395656;19;20033;-68
2022/10/10 05:06:32;;;;;;;12.60;4.35;;;;;;;;;;7396366;19;20579;-69
2022/10/10 05:08:57;;;;;;;9.73;4.57;;;;;;;;;;7396508;19;20831;-69
2022/10/10 05:11:22;;;;;;;15.50;4.70;;;;;;;;;;7390359;19;20326;-68
2022/10/10 05:13:49;;;;;;;8.95;4.30;;;;;;;;;;7394448;19;20456;-68
2022/10/10 05:16:15;;;;;;;9.95;4.78;;;;;;;;;;7395102;19;20397;-67
2022/10/10 05:18:40;;;;;;;9.88;4.15;;;;;;;;;;7392721;19;20015;-69
2022/10/10 05:21:06;;;;;;;9.40;4.43;;;;;;;;;;7392282;19;19994;-70
2022/10/10 05:23:32;;;;;;;8.18;4.70;;;;;;;;;;7394184;19;20053;-69
2022/10/10 05:25:58;;;;;;;8.40;4.57;;;;;;;;;;7392430;19;20035;-69
2022/10/10 05:28:23;;;;;;;7.55;4.13;;;;;;;;;;7395019;19;20452;-68
2022/10/10 05:30:52;;;;;;;8.88;4.78;;;;;;;;;;7387536;19;19994;-68
2022/10/10 05:33:17;;;;;;;9.85;4.40;;;;;;;;;;7391835;19;20019;-68
2022/10/10 05:35:43;;;;;;;9.65;4.43;;;;;;;;;;7390138;19;20007;-68
2022/10/10 05:38:08;;;;;;;8.32;4.07;;;;;;;;;;7394642;19;19998;-68
2022/10/10 05:40:34;;;;;;;10.95;4.80;;;;;;;;;;7393078;19;20083;-69
2022/10/10 05:42:59;;;;;;;11.65;5.13;;;;;;;;;;7393718;19;19995;-69
2022/10/10 05:45:24;;;;;;;9.43;4.22;;;;;;;;;;7391934;19;20023;-69
2022/10/10 05:47:50;;;;;;;8.32;4.70;;;;;;;;;;7393866;19;20007;-67
2022/10/10 05:50:35;;;;;;;9.65;4.10;;;;;;;;;;7392847;19;20394;-70
2022/10/10 05:53:01;;;;;;;7.57;4.22;;;;;;;;;;7394138;19;20002;-68
2022/10/10 05:55:26;;;;;;;9.02;3.95;;;;;;;;;;7390434;19;20010;-69
2022/10/10 05:57:52;;;;;;;12.30;4.60;;;;;;;;;;7391829;19;20371;-69
2022/10/10 06:00:17;;;;;;;10.68;4.72;;;;;;;;;;7392974;19;20006;-69
2022/10/10 06:02:42;;;;;;;7.78;4.05;;;;;;;;;;7392316;19;20416;-69
2022/10/10 06:05:08;;;;;;;8.55;4.38;;;;;;;;;;7390152;19;20002;-69
2022/10/10 06:07:34;;;;;;;10.18;4.47;;;;;;;;;;7387268;19;20807;-69
2022/10/10 06:09:59;;;;;;;10.65;4.63;;;;;;;;;;7392292;19;20114;-68
2022/10/10 06:12:24;;;;;;;8.73;4.38;;;;;;;;;;7391348;19;20010;-68
2022/10/10 06:14:50;;;;;;;9.80;4.82;;;;;;;;;;7384677;19;19999;-68
2022/10/10 06:17:15;;;;;;;11.73;4.55;;;;;;;;;;7391800;19;20006;-68
2022/10/10 06:19:40;;;;;;;11.30;4.93;;;;;;;;;;7390874;19;20009;-68
2022/10/10 06:22:06;;;;;;;9.93;5.20;;;;;;;;;;7391145;19;19999;-69
2022/10/10 06:24:31;;;;;;;11.23;5.22;;;;;;;;;;7393570;19;20428;-69
2022/10/10 06:26:56;;;;;;;10.20;5.03;;;;;;;;;;7393910;19;20471;-69
2022/10/10 06:29:21;;;;;;;16.40;6.47;;;;;;;;;;7391195;19;20568;-68
2022/10/10 06:31:47;;;;;;;13.80;5.10;;;;;;;;;;7388707;19;20326;-67
2022/10/10 06:34:12;;;;;;;9.00;4.78;;;;;;;;;;7393044;19;20491;-68
2022/10/10 06:36:38;;;;;;;10.65;5.20;;;;;;;;;;7392911;19;20312;-69
2022/10/10 06:39:03;;;;;;;12.30;5.70;;;;;;;;;;7380323;19;19998;-68
2022/10/10 06:41:28;;;;;;;9.50;5.53;;;;;;;;;;7386805;19;20646;-67
2022/10/10 06:43:54;;;;;;;9.02;4.82;;;;;;;;;;7392157;19;19995;-70
2022/10/10 06:46:19;;;;;;;15.00;10.27;;;;;;;;;;7392473;19;20022;-70
2022/10/10 06:48:45;;;;;;;12.35;7.65;;;;;;;;;;7391714;19;20020;-69
2022/10/10 06:51:14;;;;;;;9.32;4.45;;;;;;;;;;7391780;19;20069;-70
2022/10/10 06:53:39;;;;;;;7.75;4.30;;;;;;;;;;7393507;19;20119;-68
2022/10/10 06:56:05;;;;;;;9.75;4.63;;;;;;;;;;7392411;19;20416;-68
2022/10/10 06:58:31;;;;;;;7.55;3.80;;;;;;;;;;7393085;19;20031;-68
2022/10/10 07:00:59;;;;;;;13.55;4.68;;;;;;;;;;7390998;19;20079;-69
2022/10/10 07:03:25;;;;;;;14.18;4.45;;;;;;;;;;7390248;19;20007;-69
2022/10/10 07:05:53;;;;;;;14.80;4.72;;;;;;;;;;7392131;19;20003;-68
2022/10/10 07:08:19;;;;;;;10.50;4.65;;;;;;;;;;7391953;19;20286;-69
2022/10/10 07:10:46;;;;;;;8.68;4.43;;;;;;;;;;7385142;19;20005;-69
2022/10/10 07:13:11;;;;;;;11.98;4.82;;;;;;;;;;7385397;19;20011;-68
2022/10/10 07:15:37;;;;;;;12.23;5.18;;;;;;;;;;7388044;19;20371;-68
2022/10/10 07:18:03;;;;;;;15.50;4.78;;;;;;;;;;7388780;19;20013;-69
2022/10/10 07:20:28;;;;;;;9.80;4.70;;;;;;;;;;7388335;19;20006;-69
2022/10/10 07:22:53;;;;;;;7.63;4.15;;;;;;;;;;7389242;19;19998;-69
2022/10/10 07:25:19;;;;;;;7.72;4.05;;;;;;;;;;7387681;19;20033;-69
2022/10/10 07:27:44;;;;;;;8.80;4.38;;;;;;;;;;7336586;19;1005200;-70
2022/10/10 07:30:10;;;;;;;8.15;3.95;;;;;;;;;;7388597;19;19999;-69
2022/10/10 07:32:35;;;;;;;8.52;4.68;;;;;;;;;;7390100;19;20364;-68
2022/10/10 07:35:01;;;;;;;7.78;4.07;;;;;;;;;;7387574;19;19994;-69
2022/10/10 07:37:29;;;;;;;10.20;4.43;;;;;;;;;;7387591;19;20021;-69
2022/10/10 07:39:54;;;;;;;9.13;4.15;;;;;;;;;;7389435;19;19999;-70
2022/10/10 07:42:20;;;;;;;8.80;4.18;;;;;;;;;;7388660;19;20075;-69
2022/10/10 07:44:45;;;;;;;9.48;4.60;;;;;;;;;;7391113;19;20007;-69
2022/10/10 07:47:11;;;;;;;9.57;4.50;;;;;;;;;;7389944;19;20026;-69
2022/10/10 07:49:36;;;;;;;9.95;4.35;;;;;;;;;;7388382;19;20007;-69
2022/10/10 07:52:02;;;;;;;8.60;4.43;;;;;;;;;;7385485;19;20007;-68
2022/10/10 07:54:29;;;;;;;13.98;4.80;;;;;;;;;;7389933;19;20010;-69
2022/10/10 07:56:54;;;;;;;9.25;3.88;;;;;;;;;;7390242;19;20007;-69
2022/10/10 07:59:20;;;;;;;11.05;4.13;;;;;;;;;;7388246;19;20023;-70
2022/10/10 08:01:46;;;;;;;8.10;4.18;;;;;;;;;;7385486;19;20017;-70
2022/10/10 08:04:11;;;;;;;9.10;4.93;;;;;;;;;;7389786;19;20003;-69
2022/10/10 08:06:36;;;;;;;10.07;4.30;;;;;;;;;;7388948;19;20027;-69
2022/10/10 08:09:02;;;;;;;13.90;4.28;;;;;;;;;;7387893;19;19991;-68
2022/10/10 08:11:27;;;;;;;8.85;3.92;;;;;;;;;;7384735;19;20007;-68
2022/10/10 08:13:52;;;;;;;9.07;4.10;;;;;;;;;;7389183;19;20111;-69
2022/10/10 08:16:18;;;;;;;9.52;4.25;;;;;;;;;;7389615;19;20012;-69
2022/10/10 08:18:43;;;;;;;12.73;4.60;;;;;;;;;;7389307;19;20006;-69
2022/10/10 08:21:12;;;;;;;7.75;4.30;;;;;;;;;;7383046;19;20031;-68
2022/10/10 08:23:37;;;;;;;10.02;4.50;;;;;;;;;;7387065;19;19995;-69
2022/10/10 08:26:06;;;;;;;10.60;4.75;;;;;;;;;;7387128;19;20013;-69
2022/10/10 08:28:32;;;;;;;11.32;4.72;;;;;;;;;;7388407;19;20007;-69
2022/10/10 08:30:57;;;;;;;10.20;4.70;;;;;;;;;;7388412;19;20023;-69
2022/10/10 08:33:26;;;;;;;8.10;4.80;;;;;;;;;;7385716;19;19998;-69
2022/10/10 08:35:52;;;;;;;7.95;4.05;;;;;;;;;;7386259;19;19998;-68
2022/10/10 08:38:17;;;;;;;9.98;4.57;;;;;;;;;;7393382;19;20768;-69
2022/10/10 08:40:52;;;;;;;8.32;4.30;;;;;;;;;;7390932;19;20023;-69
2022/10/10 08:43:42;;;;;;;9.13;5.15;;;;;;;;;;7393070;19;19998;-69
2022/10/10 08:46:31;;;;;;;9.05;4.55;;;;;;;;;;7396365;19;19999;-69
2022/10/10 08:49:00;;;;;;;9.88;4.50;;;;;;;;;;7396484;19;20001;-69
2022/10/10 08:51:30;;;;;;;10.25;4.68;;;;;;;;;;7392050;19;20003;-69
2022/10/10 08:54:00;;;;;;;8.70;4.47;;;;;;;;;;7395622;19;19998;-69
2022/10/10 08:56:30;;;;;;;10.27;5.03;;;;;;;;;;7396603;19;20009;-69
2022/10/10 08:59:02;;;;;;;7.75;4.75;;;;;;;;;;7396210;19;20534;-69
2022/10/10 09:01:33;;;;;;;7.35;4.20;;;;;;;;;;7391180;19;20003;-69
2022/10/10 09:03:59;;;;;;;;;;;;;;;;;;7393900;19;20062;-69
2022/10/10 09:06:55;;;;;;;9.70;4.68;;;;;;;;;;7395916;19;19919;-69
2022/10/10 09:09:59;;;;;;;8.85;4.43;;;;;;;;;;7390100;19;20006;-68
2022/10/10 09:12:47;;;;;;;10.88;5.13;;;;;;;;;;7389097;19;20017;-69
2022/10/10 09:15:18;;;;;;;9.65;4.65;;;;;;;;;;7389722;19;20457;-69
2022/10/10 09:17:52;;;;;;;12.95;6.93;;;;;;;;;;7394070;19;19998;-69
2022/10/10 09:20:55;;;;;;;10.15;5.32;;;;;;;;;;7393516;19;20487;-69
2022/10/10 09:23:27;;;;;;;9.43;4.53;;;;;;;;;;7390114;19;20027;-69
2022/10/10 09:26:04;;;;;;;7.03;4.47;;;;;;;;;;7394274;19;20006;-69
2022/10/10 09:28:30;;;;;;;12.60;4.93;;;;;;;;;;7395897;19;20002;-69
2022/10/10 09:30:59;;;;;;;10.20;4.63;;;;;;;;;;7394033;19;20385;-69
2022/10/10 09:33:37;;;;;;;8.85;4.75;;;;;;;;;;7392544;19;20002;-69
2022/10/10 09:36:08;;;;;;;7.40;4.50;;;;;;;;;;7391664;19;20108;-69
2022/10/10 09:38:42;;;;;;;10.80;4.60;;;;;;;;;;7394705;19;19998;-69
2022/10/10 09:41:20;;;;;;;14.13;5.30;;;;;;;;;;7386784;19;20026;-69
2022/10/10 09:43:47;;;;;;;10.20;5.15;;;;;;;;;;7394022;19;20353;-69
2022/10/10 09:46:13;;;;;;;7.78;4.72;;;;;;;;;;7393604;19;20438;-69
2022/10/10 09:48:40;;;;;;;8.25;5.00;;;;;;;;;;7394024;19;20335;-69
2022/10/10 09:51:12;;;;;;;9.23;4.97;;;;;;;;;;7388321;19;19999;-69
2022/10/10 09:53:37;;;;;;;8.82;5.43;;;;;;;;;;7392010;19;20054;-69
2022/10/10 09:56:04;;;;;;;8.07;4.60;;;;;;;;;;7390739;19;20489;-68
2022/10/10 09:58:40;;;;;;;9.93;4.47;;;;;;;;;;7394107;19;20369;-69
2022/10/10 10:01:12;;;;;;;7.68;4.40;;;;;;;;;;7388015;19;20006;-68
2022/10/10 10:03:38;;;;;;;8.45;4.63;;;;;;;;;;7391868;19;20022;-69
2022/10/10 10:06:03;;;;;;;10.98;4.70;;;;;;;;;;7390569;19;20009;-67
2022/10/10 10:08:34;;;;;;;11.40;4.60;;;;;;;;;;7393689;19;20070;-69
2022/10/10 10:11:00;;;;;;;;;;;;;;;;;;7392608;19;20019;-68
2022/10/10 10:13:28;;;;;;;11.20;4.50;;;;;;;;;;7389758;19;19923;-68
2022/10/10 10:15:59;;;;;;;8.68;4.85;;;;;;;;;;7390560;19;20523;-69
2022/10/10 10:18:27;;;;;;;8.02;4.18;;;;;;;;;;7392182;19;20002;-69
2022/10/10 10:21:01;;;;;;;9.32;4.32;;;;;;;;;;7392612;19;20002;-69
2022/10/10 10:23:30;;;;;;;8.75;4.63;;;;;;;;;;7392247;19;20058;-69
2022/10/10 10:26:00;;;;;;;6.82;4.50;;;;;;;;;;7392929;19;20413;-69
2022/10/10 10:28:25;;;;;;;;;;;;;;;;;;7394393;19;20383;-69
2022/10/10 10:30:53;;;;;;;6.57;4.47;;;;;;;;;;7392536;19;19914;-69
2022/10/10 10:33:35;;;;;;;9.73;4.53;;;;;;;;;;7390777;19;20003;-70
2022/10/10 10:36:29;;;;;;;6.68;4.30;;;;;;;;;;7392047;19;19990;-69
2022/10/10 10:39:12;;;;;;;9.48;4.93;;;;;;;;;;7395602;19;20363;-69
2022/10/10 10:41:49;;;;;;;7.15;4.30;;;;;;;;;;7388561;19;20523;-69
2022/10/10 10:44:17;;;;;;;9.35;4.68;;;;;;;;;;7391549;19;20010;-69
2022/10/10 10:46:54;;;;;;;8.60;4.53;;;;;;;;;;7393029;19;19994;-69
2022/10/10 10:50:05;;;;;;;9.10;4.13;;;;;;;;;;7392766;19;20014;-69
2022/10/10 10:52:47;;;;;;;12.25;4.40;;;;;;;;;;7384393;19;19998;-69
2022/10/10 10:55:28;;;;;;;10.15;4.57;;;;;;;;;;7385142;19;20026;-69
2022/10/10 10:58:11;;;;;;;8.70;4.60;;;;;;;;;;7389892;19;19999;-69
2022/10/10 11:01:04;;;;;;;8.48;4.85;;;;;;;;;;7387732;19;19999;-69
2022/10/10 11:03:34;;;;;;;9.18;4.47;;;;;;;;;;7388062;19;19995;-69
2022/10/10 11:06:22;;;;;;;7.20;4.47;;;;;;;;;;7389335;19;20002;-70
2022/10/10 11:09:00;;;;;;;7.07;4.05;;;;;;;;;;7392778;19;20025;-69
2022/10/10 11:11:47;;;;;;;10.02;4.38;;;;;;;;;;7386333;19;20282;-69
2022/10/10 11:14:35;;;;;;;6.90;3.63;;;;;;;;;;7391109;19;20001;-69
2022/10/10 11:17:33;;;;;;;8.95;4.28;;;;;;;;;;7390566;19;20114;-69
2022/10/10 11:20:14;;;;;;;8.38;4.68;;;;;;;;;;7389451;19;20035;-69
2022/10/10 11:23:18;;;;;;;7.80;4.32;;;;;;;;;;7389509;19;20392;-69
2022/10/10 11:25:58;;;;;;;7.03;4.30;;;;;;;;;;7388093;19;19994;-69
2022/10/10 11:28:30;;;;;;;10.38;4.47;;;;;;;;;;7391381;19;19999;-69
2022/10/10 11:31:04;;;;;;;7.35;3.88;;;;;;;;;;7364209;19;20026;-70
2022/10/10 11:33:34;;;;;;;8.38;4.30;;;;;;;;;;7389952;19;20003;-68
2022/10/10 11:36:04;;;;;;;8.10;3.65;;;;;;;;;;7388384;19;19995;-68
2022/10/10 11:38:47;;;;;;;8.00;3.97;;;;;;;;;;7387445;19;19995;-69
2022/10/10 11:41:24;;;;;;;8.02;4.20;;;;;;;;;;7383368;19;20340;-69
2022/10/10 11:43:56;;;;;;;10.73;3.80;;;;;;;;;;7389465;19;20001;-69
2022/10/10 11:46:52;;;;;;;9.38;3.80;;;;;;;;;;7389993;19;20010;-69
2022/10/10 11:49:26;;;;;;;8.20;3.97;;;;;;;;;;7388202;19;19995;-68
2022/10/10 11:52:33;;;;;;;6.18;3.70;;;;;;;;;;7386187;19;19999;-69
2022/10/10 11:55:01;;;;;;;8.40;3.80;;;;;;;;;;7390060;19;19991;-70
2022/10/10 11:57:34;;;;;;;9.32;4.13;;;;;;;;;;7388210;19;20009;-69
2022/10/10 12:00:06;;;;;;;5.63;3.42;;;;;;;;;;7389006;19;20015;-68
2022/10/10 12:02:35;;;;;;;10.77;3.10;;;;;;;;;;7387393;19;19994;-68
2022/10/10 12:05:04;;;;;;;7.47;3.35;;;;;;;;;;7390822;19;19994;-68
2022/10/10 12:07:42;;;;;;;6.25;3.60;;;;;;;;;;7387971;19;20001;-68
2022/10/10 12:10:15;;;;;;;8.02;3.03;;;;;;;;;;7385368;19;20023;-68
2022/10/10 12:12:45;;;;;;;10.38;3.40;;;;;;;;;;7394673;19;19998;-70
2022/10/10 12:15:24;;;;;;;11.00;3.50;;;;;;;;;;7393423;19;19998;-68
2022/10/10 12:17:50;;;;;;;9.13;3.25;;;;;;;;;;7395786;19;20002;-69
2022/10/10 12:20:18;;;;;;;7.72;3.13;;;;;;;;;;7395433;19;20435;-68
2022/10/10 12:22:43;;;;;;;9.95;3.83;;;;;;;;;;7396209;19;20524;-69
2022/10/10 12:25:09;;;;;;;9.07;3.45;;;;;;;;;;7392981;19;20052;-70
2022/10/10 12:27:46;;;;;;;7.85;3.10;;;;;;;;;;7395580;19;19999;-68
2022/10/10 12:30:23;;;;;;;8.05;3.47;;;;;;;;;;7395706;19;19999;-69
2022/10/10 12:32:51;;;;;;;9.35;3.08;;;;;;;;;;7395835;19;20017;-68
2022/10/10 12:35:40;;;;;;;7.55;3.05;;;;;;;;;;7393080;19;19990;-69
2022/10/10 12:38:11;;;;;;;6.00;3.20;;;;;;;;;;7396207;19;19999;-69
2022/10/10 12:41:04;;;;;;;6.45;3.30;;;;;;;;;;7391931;19;19999;-69
2022/10/10 12:43:37;;;;;;;6.53;3.00;;;;;;;;;;7394170;19;19995;-68
2022/10/10 12:46:15;;;;;;;7.20;3.10;;;;;;;;;;7393013;19;19994;-69
2022/10/10 12:48:41;;;;;;;9.23;3.58;;;;;;;;;;7395748;19;20078;-69
2022/10/10 12:51:18;;;;;;;6.85;3.20;;;;;;;;;;7390490;19;19994;-69
2022/10/10 12:53:49;;;;;;;5.45;3.00;;;;;;;;;;7394296;19;20019;-69
2022/10/10 12:56:15;;;;;;;5.38;2.70;;;;;;;;;;7396043;19;20002;-68
2022/10/10 12:58:41;;;;;;;6.82;2.95;;;;;;;;;;7397040;19;20031;-69
2022/10/10 13:01:22;;;;;;;7.00;3.00;;;;;;;;;;7393033;19;19998;-68
2022/10/10 13:03:49;;;;;;;11.23;3.13;;;;;;;;;;7393289;19;20336;-68
2022/10/10 13:06:38;;;;;;;11.50;3.95;;;;;;;;;;7396401;19;20287;-68
2022/10/10 13:09:14;;;;;;;13.05;3.60;;;;;;;;;;7392904;19;19999;-69
2022/10/10 13:11:50;;;;;;;6.25;3.35;;;;;;;;;;7390893;19;20370;-69
2022/10/10 13:14:16;;;;;;;9.25;3.58;;;;;;;;;;7392161;19;19994;-67
2022/10/10 13:16:43;;;;;;;11.27;4.10;;;;;;;;;;7395970;19;20071;-68
2022/10/10 13:19:22;;;;;;;14.27;4.13;;;;;;;;;;7392650;19;19991;-67
2022/10/10 13:21:50;;;;;;;5.97;3.23;;;;;;;;;;7390574;19;20003;-68
2022/10/10 13:24:18;;;;;;;5.15;3.75;;;;;;;;;;7392977;19;20513;-69
2022/10/10 13:26:47;;;;;;;11.27;4.20;;;;;;;;;;7395412;19;20016;-69
2022/10/10 13:29:24;;;;;;;8.77;4.05;;;;;;;;;;7392496;19;19998;-69
2022/10/10 13:31:52;;;;;;;9.88;3.78;;;;;;;;;;7390370;19;19999;-70
2022/10/10 13:34:22;;;;;;;14.23;4.15;;;;;;;;;;7391124;19;20008;-68
2022/10/10 13:36:48;;;;;;;6.35;3.40;;;;;;;;;;7393522;19;20320;-68
2022/10/10 13:39:15;;;;;;;6.05;3.17;;;;;;;;;;7388501;19;19991;-69
2022/10/10 13:41:44;;;;;;;8.93;4.15;;;;;;;;;;7389001;19;19999;-68
2022/10/10 13:44:14;;;;;;;8.65;3.65;;;;;;;;;;7392149;19;20003;-69
2022/10/10 13:46:40;;;;;;;8.02;3.70;;;;;;;;;;7394657;19;20476;-68
2022/10/10 13:49:25;;;;;;;6.95;3.30;;;;;;;;;;7391292;19;20117;-68
2022/10/10 13:52:18;;;;;;;7.82;3.83;;;;;;;;;;7389870;19;20006;-69
2022/10/10 13:54:47;;;;;;;12.57;3.60;;;;;;;;;;7393358;19;20733;-69
2022/10/10 13:57:25;;;;;;;7.93;3.90;;;;;;;;;;7391812;19;20391;-69
2022/10/10 14:00:06;;;;;;;9.85;3.58;;;;;;;;;;7393112;19;19998;-69
2022/10/10 14:02:35;;;;;;;8.15;3.53;;;;;;;;;;7392864;19;19994;-69
2022/10/10 14:05:06;;;;;;;8.13;3.33;;;;;;;;;;7394363;19;20015;-69
2022/10/10 14:07:32;;;;;;;8.82;3.30;;;;;;;;;;7389862;19;20453;-69
2022/10/10 14:10:09;;;;;;;7.60;3.42;;;;;;;;;;7386269;19;20011;-70
2022/10/10 14:12:42;;;;;;;9.65;3.60;;;;;;;;;;7390115;19;20014;-69
2022/10/10 14:15:56;;;;;;;9.25;3.60;;;;;;;;;;7390220;19;19994;-69
2022/10/10 14:18:24;;;;;;;6.40;3.25;;;;;;;;;;7391558;19;20002;-67
2022/10/10 14:20:52;;;;;;;11.55;3.55;;;;;;;;;;7392650;19;20005;-70
2022/10/10 14:23:17;;;;;;;11.75;3.90;;;;;;;;;;7389008;19;20015;-68
2022/10/10 14:25:45;;;;;;;9.15;4.07;;;;;;;;;;7389510;19;19999;-68
2022/10/10 14:28:24;;;;;;;11.30;4.10;;;;;;;;;;7390433;19;19999;-68
2022/10/10 14:30:50;;;;;;;12.27;3.88;;;;;;;;;;7386470;19;20010;-68
2022/10/10 14:33:17;;;;;;;12.75;3.60;;;;;;;;;;7388262;19;19998;-68
2022/10/10 14:35:44;;;;;;;8.88;3.78;;;;;;;;;;7388632;19;20348;-68
2022/10/10 14:38:10;;;;;;;9.60;3.55;;;;;;;;;;7391164;19;20100;-68
2022/10/10 14:40:36;;;;;;;8.75;3.75;;;;;;;;;;7389205;19;20002;-68
2022/10/10 14:43:01;;;;;;;6.40;3.35;;;;;;;;;;7389104;19;20015;-68
2022/10/10 14:45:27;;;;;;;9.18;3.55;;;;;;;;;;7390933;19;20123;-69
2022/10/10 14:47:52;;;;;;;8.75;3.40;;;;;;;;;;7391198;19;20050;-69
2022/10/10 14:50:21;;;;;;;9.07;3.38;;;;;;;;;;7390689;19;20003;-68
2022/10/10 14:52:46;;;;;;;10.57;3.67;;;;;;;;;;7389678;19;20050;-68
2022/10/10 14:55:12;;;;;;;13.88;3.50;;;;;;;;;;7390556;19;20354;-68
2022/10/10 14:57:38;;;;;;;8.70;3.63;;;;;;;;;;7392083;19;19998;-68
2022/10/10 15:00:05;;;;;;;8.38;3.80;;;;;;;;;;7390200;19;20002;-67
2022/10/10 15:02:31;;;;;;;10.52;3.40;;;;;;;;;;7389873;19;19998;-68